SLIP weather

Samaipata Airport
Florida, Santa Cruz Department, Bolivia

Public forecast

Using degrees Celsius for public forecast. Weather courtesy of forecast.io.

Closest aviation weather report (METAR) to Samaipata Airport

Report is more than 6 hours old.

Closest report is Capit├ín Av. Vidal Villagomez Toledo Airport, 21.8 nm (40.3 km) SW. Retrieved 2019/11/20 13:00 UTC (23 days ago):

SLVG 201300Z 00000KT 9999 FEW025 22/13 Q1027

Closest aviation forecast (TAF) to Samaipata Airport

Closest forecast is El Trompillo Airport, 46.4 nm (85.9 km) ENE. Retrieved 2019/12/13 12:06 UTC (4 hours ago):

TAF SLET 130955Z 1312/1412 15005KT 9999 BKN017 TX33/1320Z TN21/1410Z TEMPO 1317/1320 05012KT SCT020 FEW030CB BECMG 1404/1407 BKN007 BECMG 1409/1412 FEW012